Get Adobe Flash player

РУС

ENG

 
  Pireps - S7
 

Рейс SBIS7 1089

  • Выполнял: Andrew Vyunov
  • Аэропорт отправления: Pulkovo Airport (ULLI)
  • Аэропорт назначения: Domodedovo Airport (UUDD)
  • Тип ВС: A320-214 (VQ-BET)
  • Время полёта: 01.23
  • Дата полёта: 03.11.2018
  • Маршрут: OKUDI B160 BD SW BESTA RUGEL GEKLA
  • Статус: Ожидает рассмотрения

Детали полёта
Gross Revenue:
(127 load / $ 800.00 per unit
$ 101,600.00
Fuel Cost:
(16132 fuel used @ 5.1 / unit)
$ 82,273.20


Дополнительная информация о полёте:

Лог

Aircraft Used in flight is Airbus A320-214 CFM Sharklets Airbus house color
16:13 Boarding
16:13 Engine 1 Started
16:13 Engine 2 Started
16:13 Brakes are On
16:16 Strobe Lights ON at 90 AGL
16:17 Beacon Lights ON at 90 AGL
16:17 Navigation Lights ON at 90 AGL
16:18 Brakes are Released
16:18 Taxi Lights ON at 90 AGL
16:22Flaps 1 Selected at 90ft and 15kts
16:22Flaps 2 Selected at 90ft and 15kts
16:22Flaps 3 Selected at 90ft and 15kts
16:23 Landing Lights ON at 90 AGL
16:23 Taxi Lights OFF at 90 AGL
16:24 You Took off @ 190 Knots and Flaps at Position 3
Departure Weather
ULLI 031300Z 24006MPS 9999 BKN021 10/07 Q1018 R88/190055 NOSIGrn
16:24 Landing Gear Up @ 206 Knots and 680 Feet
16:24Flaps 2 Selected at 1390ft and 216kts
16:24Flaps 1 Selected at 1630ft and 218kts
16:25 Landing Lights OFF at 3140 AGL
16:26Flaps Retracted at 5270ft and 228kts
17:21 You exceeded maximum bank angle
17:28Flaps 1 Selected at 5460ft and 228kts
17:30 Landing Lights ON at 3560 AGL
17:31Flaps 2 Selected at 2520ft and 194kts
17:31Flaps 3 Selected at 2510ft and 193kts
17:31Flaps 4 Selected at 2510ft and 184kts
17:32 Landing Gear Down @ 181 Knots and 2500 Feet
17:34Flaps 5 Selected at 970ft and 184kts
17:34 You Landed @ 158 Knots and with -350 Vertical Speed
Arrival Weather
UUDD 031300Z 22003MPS 180V260 8000 -RA BKN015 08/06 Q1025 R88/010095 NOSIGrn
17:35Flaps Retracted at 600ft and 62kts
17:35 Taxi Lights ON at 600 AGL
17:35 Landing Lights OFF at 600 AGL
17:36 Taxiing to gate
17:36 Brakes are On
17:36 Engine 1 Stoped
17:36 Engine 2 Stoped
Pirep logged with S7 Tracking 1.0.0.13


!!! Превышение допустимого значения вертикальной скорости при посадке: -5%


Общая оценка полета : 95%




Route Map



 
 
   
 
News

26.04.2018 - Flights in X-PLANE

Our client supports by S7 Pad flights as in MFSX, Prepar3d V4, and in X-PLANE 10 and 11 versions!
On our website in the category of a zagruka there is a plug-in of XPUIPIC for X-plane.
Flights pleasant to you and soft landings!

   
 
Authorization






Registration

Recover the password?

We in social nets

      



   
  TeamSpeak3 ts.va-s7.ru


   
 

   
 



   
 


Яндекс.Метрика

www.va-s7.ru 2011-2017
All rights reserved.



Minute of attention!
We have no relation to trademarks "S7" and "Globus" and to their representatives.
Emblems on the website are property of the relevant companies.

air navigation meteorological and any other information from this resource shouldnt be used for real flights at all.